createdAt,value
2022-09-12T00:07:08.822Z,15.53
2022-09-12T00:17:12.639Z,15.57
2022-09-12T00:27:15.645Z,15.59
2022-09-12T00:37:18.680Z,15.52
2022-09-12T00:47:31.734Z,15.32
2022-09-12T00:57:49.854Z,15.36
2022-09-12T01:07:54.788Z,15.35
2022-09-12T01:18:28.702Z,15.41
2022-09-12T01:28:50.539Z,15.52
2022-09-12T01:39:11.177Z,15.51
2022-09-12T01:49:25.715Z,15.26
2022-09-12T01:59:39.423Z,15.14
2022-09-12T02:10:20.203Z,15.07
2022-09-12T02:20:46.983Z,14.87
2022-09-12T02:30:56.214Z,14.51
2022-09-12T02:40:59.306Z,14.36
2022-09-12T02:51:02.603Z,13.92
2022-09-12T03:01:51.336Z,13.66
2022-09-12T03:12:08.829Z,13.59
2022-09-12T03:22:23.894Z,13.46
2022-09-12T03:32:49.627Z,13.29
2022-09-12T03:42:52.585Z,12.98
2022-09-12T03:52:55.529Z,12.85
2022-09-12T04:02:58.657Z,12.82
2022-09-12T04:13:01.690Z,12.85
2022-09-12T04:23:04.620Z,13.06
2022-09-12T04:33:08.208Z,12.79
2022-09-12T04:43:14.418Z,12.69
2022-09-12T04:53:17.652Z,12.77
2022-09-12T05:03:20.506Z,12.94
2022-09-12T05:13:23.547Z,13.46
2022-09-12T05:23:27.828Z,13.86
2022-09-12T05:33:32.177Z,14.08
2022-09-12T05:43:35.822Z,13.74
2022-09-12T05:53:40.516Z,13.92
2022-09-12T06:03:47.702Z,15.05
2022-09-12T06:13:51.202Z,14.74
2022-09-12T06:23:55.343Z,15.18
2022-09-12T06:34:01.478Z,15.22
2022-09-12T06:44:05.060Z,15.04
2022-09-12T06:54:08.084Z,15.36
2022-09-12T07:04:11.585Z,15.68
2022-09-12T07:14:15.395Z,16.37
2022-09-12T07:24:18.346Z,18.17
2022-09-12T07:34:21.288Z,18.55
2022-09-12T07:44:25.331Z,19.30
2022-09-12T07:54:28.303Z,19.71
2022-09-12T08:04:31.162Z,20.58
2022-09-12T08:14:34.104Z,20.91
2022-09-12T08:24:39.243Z,21.24
2022-09-12T08:34:42.176Z,21.50
2022-09-12T08:44:56.665Z,21.35
2022-09-12T08:55:01.882Z,21.94
2022-09-12T09:05:17.995Z,21.68
2022-09-12T09:16:03.396Z,21.78
2022-09-12T09:26:14.766Z,21.07
2022-09-12T09:36:25.263Z,22.61
2022-09-12T09:46:29.141Z,22.83
2022-09-12T09:56:40.675Z,22.03
2022-09-12T10:06:44.445Z,22.02
2022-09-12T10:16:55.347Z,21.02
2022-09-12T10:27:13.638Z,20.86
2022-09-12T10:37:27.359Z,22.39
2022-09-12T10:47:32.778Z,21.28
2022-09-12T10:58:05.290Z,21.75
2022-09-12T11:08:38.401Z,20.91
2022-09-12T11:19:14.916Z,21.16
2022-09-12T11:29:26.331Z,24.11
2022-09-12T11:39:45.982Z,25.36
2022-09-12T11:49:54.559Z,24.58
2022-09-12T12:00:15.320Z,22.42
2022-09-12T12:10:31.106Z,22.84
2022-09-12T12:20:35.243Z,24.12
2022-09-12T12:30:38.221Z,24.43
2022-09-12T12:40:41.210Z,24.25
2022-09-12T12:50:45.636Z,23.68
2022-09-12T13:01:07.654Z,24.02
2022-09-12T13:11:16.881Z,23.41
2022-09-12T13:21:21.714Z,23.31
2022-09-12T13:31:30.745Z,22.76
2022-09-12T13:41:53.303Z,22.93
2022-09-12T13:52:03.321Z,23.09
2022-09-12T14:02:20.763Z,23.33
2022-09-12T14:12:27.277Z,22.91
2022-09-12T14:22:31.082Z,22.87
2022-09-12T14:32:34.185Z,22.53
2022-09-12T14:42:46.891Z,22.55
2022-09-12T14:53:08.027Z,21.91
2022-09-12T15:03:34.732Z,21.55
2022-09-12T15:13:42.099Z,20.98
2022-09-12T15:23:52.532Z,20.83
2022-09-12T15:33:57.243Z,20.60
2022-09-12T15:44:19.402Z,20.29
2022-09-12T15:54:32.281Z,20.05
2022-09-12T16:04:35.856Z,19.87
2022-09-12T16:14:41.309Z,19.28
2022-09-12T16:24:52.329Z,18.91
2022-09-12T16:34:55.401Z,18.44
2022-09-12T16:44:58.657Z,17.96
2022-09-12T16:55:01.648Z,17.74
2022-09-12T17:05:09.685Z,17.40
2022-09-12T17:15:15.231Z,17.11
2022-09-12T17:25:18.256Z,16.72
2022-09-12T17:35:21.915Z,16.56
2022-09-12T17:45:25.606Z,16.52
2022-09-12T17:55:32.178Z,16.25
2022-09-12T18:05:35.588Z,16.30
2022-09-12T18:15:39.073Z,16.16
2022-09-12T18:25:43.812Z,15.87
2022-09-12T18:35:50.538Z,15.79
2022-09-12T18:46:00.003Z,15.55
2022-09-12T18:56:09.194Z,15.21
2022-09-12T19:06:18.224Z,15.06
2022-09-12T19:16:25.014Z,15.11
2022-09-12T19:26:29.077Z,14.94
2022-09-12T19:36:44.901Z,14.90
2022-09-12T19:46:49.157Z,14.80
2022-09-12T19:56:52.865Z,14.25
2022-09-12T20:06:57.097Z,13.83
2022-09-12T20:17:00.097Z,13.73
2022-09-12T20:27:03.401Z,13.78
2022-09-12T20:37:06.486Z,13.88
2022-09-12T20:47:09.545Z,13.22
2022-09-12T20:57:12.654Z,13.45
2022-09-12T21:07:15.696Z,13.28
2022-09-12T21:17:18.905Z,13.12
2022-09-12T21:27:21.994Z,13.42
2022-09-12T21:37:25.209Z,13.26
2022-09-12T21:47:28.539Z,13.16
2022-09-12T21:57:41.337Z,12.66
2022-09-12T22:07:45.388Z,12.41
2022-09-12T22:17:48.418Z,12.44
2022-09-12T22:27:52.276Z,12.29
2022-09-12T22:37:55.308Z,11.98
2022-09-12T22:48:00.801Z,12.18
2022-09-12T22:58:04.436Z,11.84
2022-09-12T23:08:07.423Z,12.00
2022-09-12T23:18:10.380Z,11.63
2022-09-12T23:28:14.849Z,11.78
2022-09-12T23:38:17.857Z,11.54
2022-09-12T23:48:20.888Z,11.43
2022-09-12T23:58:24.323Z,11.41
